Time;durP1;ratioP1;P1;durP2;ratioP2;P2;SDS_P1;SDS_P2;PMS_P1;PMS_P2;Temp;Humidity;BMP_temperature;BMP_pressure;BME280_temperature;BME280_humidity;BME280_pressure;Samples;Min_cycle;Max_cycle;Signal;HPM_P1;HPM_P2
2023/10/03 00:00:55;;;;;;;1.77;0.98;;;;;;;13.18;75.06;99603.44;5056462;28;20048;-44
2023/10/03 00:03:23;;;;;;;1.45;0.90;;;;;;;13.18;76.33;99619.06;5056470;28;20044;-44
2023/10/03 00:05:51;;;;;;;2.25;1.35;;;;;;;13.18;76.07;99624.25;5054627;28;20048;-50
2023/10/03 00:08:18;;;;;;;2.47;1.25;;;;;;;13.20;75.33;99622.47;5045874;28;20057;-45
2023/10/03 00:10:45;;;;;;;2.58;1.27;;;;;;;13.18;75.57;99619.06;5050368;28;20048;-48
2023/10/03 00:13:12;;;;;;;3.35;1.17;;;;;;;13.18;75.20;99608.66;5056062;28;20044;-44
2023/10/03 00:15:44;;;;;;;2.30;1.30;;;;;;;13.14;75.83;99600.03;5057857;28;20063;-46
2023/10/03 00:18:13;;;;;;;2.72;1.10;;;;;;;13.15;75.72;99600.91;5055305;28;20072;-47
2023/10/03 00:20:41;;;;;;;2.90;1.35;;;;;;;13.12;75.83;99596.63;5055400;28;21849;-45
2023/10/03 00:23:08;;;;;;;2.13;1.67;;;;;;;13.09;76.41;99610.56;5053246;28;20048;-46
2023/10/03 00:25:36;;;;;;;2.17;1.30;;;;;;;13.10;76.22;99614.84;5055239;28;20052;-47
2023/10/03 00:28:06;;;;;;;2.97;1.75;;;;;;;13.11;75.40;99624.38;5053354;28;20052;-44
2023/10/03 00:30:38;;;;;;;3.88;1.95;;;;;;;13.14;76.26;99627.81;5052388;28;20140;-47
2023/10/03 00:33:09;;;;;;;3.55;1.92;;;;;;;13.15;75.92;99632.09;5051456;28;20159;-45
2023/10/03 00:35:36;;;;;;;4.82;1.92;;;;;;;13.13;75.56;99623.50;5055728;28;20056;-43
2023/10/03 00:38:09;;;;;;;6.22;1.90;;;;;;;13.10;75.86;99625.25;5048790;28;20055;-44
2023/10/03 00:40:36;;;;;;;4.78;2.45;;;;;;;13.07;76.04;99625.31;5051491;28;20049;-45
2023/10/03 00:43:03;;;;;;;4.32;2.28;;;;;;;13.07;75.56;99627.06;5057223;28;20130;-43
2023/10/03 00:45:31;;;;;;;5.22;2.75;;;;;;;13.03;76.25;99615.88;5057177;28;20052;-46
2023/10/03 00:48:01;;;;;;;6.00;3.22;;;;;;;13.05;76.19;99628.84;5054280;28;20139;-45
2023/10/03 00:50:31;;;;;;;6.93;3.00;;;;;;;13.07;75.48;99658.28;5042331;28;20045;-46
2023/10/03 00:53:04;;;;;;;8.30;3.88;;;;;;;13.07;76.34;99664.31;5048449;28;20493;-43
2023/10/03 00:55:33;;;;;;;8.88;3.60;;;;;;;13.08;76.12;99680.78;5050389;28;20058;-45
2023/10/03 01:00:45;;;;;;;10.32;4.95;;;;;;;13.04;76.03;99687.75;5044209;28;20403;-45
2023/10/03 01:03:37;;;;;;;7.70;4.47;;;;;;;13.00;76.33;99698.28;4983408;28;20054;-46
2023/10/03 01:06:13;;;;;;;7.00;3.10;;;;;;;13.01;77.03;99706.03;4972271;28;20757;-45
2023/10/03 01:11:18;;;;;;;9.75;5.25;;;;;;;13.42;75.46;99700.06;5003893;28;20892;-47
2023/10/03 01:13:49;;;;;;;8.50;4.18;;;;;;;13.17;76.24;99700.56;4993193;28;20046;-45
2023/10/03 01:16:27;;;;;;;6.90;3.28;;;;;;;13.09;76.08;99701.56;4995383;28;20056;-46
2023/10/03 01:18:58;;;;;;;6.85;3.20;;;;;;;13.06;76.43;99708.53;4989996;28;20051;-47
2023/10/03 01:21:26;;;;;;;6.97;3.17;;;;;;;13.05;77.58;99709.44;4989664;28;20050;-49
2023/10/03 01:23:53;;;;;;;6.18;2.88;;;;;;;13.03;76.22;99719.00;4991743;28;20053;-47
2023/10/03 01:26:21;;;;;;;6.18;3.03;;;;;;;13.03;76.75;99719.00;4990571;28;20054;-47
2023/10/03 01:28:48;;;;;;;9.57;3.80;;;;;;;13.03;76.62;99714.66;4991262;28;20422;-49
2023/10/03 01:31:15;;;;;;;8.30;3.78;;;;;;;13.01;76.48;99724.25;4990869;28;20132;-46
2023/10/03 01:33:42;;;;;;;8.10;4.22;;;;;;;13.01;76.32;99747.63;4992553;28;21314;-44
2023/10/03 01:36:10;;;;;;;7.82;3.70;;;;;;;13.01;76.44;99741.56;4991369;28;20061;-48
2023/10/03 01:38:37;;;;;;;9.32;3.90;;;;;;;13.01;75.84;99744.16;4986222;28;20050;-49
2023/10/03 01:41:06;;;;;;;7.18;3.45;;;;;;;13.02;76.27;99749.34;4985504;28;21142;-49
2023/10/03 01:43:33;;;;;;;9.55;3.70;;;;;;;13.03;76.11;99745.84;4982472;28;20045;-51
2023/10/03 01:46:00;;;;;;;10.27;4.35;;;;;;;13.04;77.29;99742.34;4980749;28;20049;-46
2023/10/03 01:48:27;;;;;;;9.90;3.85;;;;;;;13.03;76.22;99745.00;4985691;28;20050;-46
2023/10/03 01:50:55;;;;;;;8.65;3.85;;;;;;;13.01;77.22;99747.63;4984976;28;20049;-47
2023/10/03 01:53:23;;;;;;;5.95;3.47;;;;;;;12.99;76.52;99749.41;4989147;28;20134;-48
2023/10/03 01:55:50;;;;;;;7.78;3.90;;;;;;;13.00;76.70;99756.31;4987450;28;20079;-50
2023/10/03 01:58:23;;;;;;;7.80;3.28;;;;;;;12.99;76.64;99759.78;4989564;28;20121;-46
2023/10/03 02:00:51;;;;;;;9.77;2.65;;;;;;;12.95;76.76;99751.19;4986518;28;20046;-45
2023/10/03 02:03:20;;;;;;;6.70;2.63;;;;;;;12.95;76.72;99752.94;4984996;28;20050;-47
2023/10/03 02:05:48;;;;;;;6.28;2.22;;;;;;;12.92;76.03;99758.19;4986188;28;20132;-47
2023/10/03 02:08:16;;;;;;;5.25;2.97;;;;;;;12.92;77.18;99773.78;4987324;28;21917;-49
2023/10/03 02:10:45;;;;;;;5.18;2.53;;;;;;;12.92;75.75;99779.84;4991066;28;20045;-47
2023/10/03 02:13:14;;;;;;;5.28;2.17;;;;;;;12.91;76.88;99772.06;5004831;28;21357;-47
2023/10/03 02:15:42;;;;;;;7.05;2.60;;;;;;;12.89;76.56;99774.69;5011951;28;20116;-47
2023/10/03 02:18:10;;;;;;;8.27;2.45;;;;;;;12.88;75.64;99767.78;5011196;28;20058;-47
2023/10/03 02:20:47;;;;;;;6.18;2.45;;;;;;;12.87;76.92;99765.22;5012338;28;20053;-50
2023/10/03 02:23:19;;;;;;;8.55;3.20;;;;;;;12.88;75.99;99772.97;4994961;28;20502;-48
2023/10/03 02:25:47;;;;;;;4.90;2.75;;;;;;;12.87;76.79;99775.59;5002212;28;20052;-47
2023/10/03 02:28:16;;;;;;;7.18;2.88;;;;;;;12.88;76.00;99782.50;4999121;28;20521;-48
2023/10/03 02:30:44;;;;;;;4.93;2.33;;;;;;;12.86;75.95;99779.94;4998238;28;20501;-45
2023/10/03 02:33:15;;;;;;;7.95;3.15;;;;;;;12.87;77.11;99786.84;4999988;28;20049;-45
2023/10/03 02:35:44;;;;;;;6.88;3.63;;;;;;;12.87;76.54;99791.19;4996903;28;20061;-49
2023/10/03 02:38:24;;;;;;;10.50;3.60;;;;;;;12.87;75.61;99801.59;4997909;28;20179;-46
2023/10/03 02:40:54;;;;;;;8.82;3.45;;;;;;;12.86;76.15;99787.72;4997180;28;20054;-49
2023/10/03 02:43:21;;;;;;;9.95;4.63;;;;;;;12.87;76.63;99801.59;4997168;28;20053;-46
2023/10/03 02:45:47;;;;;;;7.95;3.85;;;;;;;12.85;75.95;99799.88;4993843;28;20056;-48
2023/10/03 02:48:14;;;;;;;7.93;4.10;;;;;;;12.88;76.04;99801.56;4996689;28;20095;-46
2023/10/03 02:50:43;;;;;;;8.98;3.53;;;;;;;12.88;76.08;99792.91;4996284;28;20048;-47
2023/10/03 02:53:17;;;;;;;7.20;3.13;;;;;;;12.87;76.79;99802.44;4994040;28;20143;-49
2023/10/03 02:55:46;;;;;;;10.45;3.70;;;;;;;12.88;76.57;99811.09;4991713;28;20404;-46
2023/10/03 02:58:14;;;;;;;8.68;3.17;;;;;;;12.87;75.96;99806.78;4994931;28;20133;-46
2023/10/03 03:00:41;;;;;;;6.80;2.80;;;;;;;12.88;76.66;99803.31;4993772;28;20049;-47
2023/10/03 03:03:09;;;;;;;6.18;3.15;;;;;;;12.87;76.30;99817.19;4995399;28;20065;-48
2023/10/03 03:05:37;;;;;;;5.40;2.65;;;;;;;12.85;75.86;99815.47;4993164;28;20046;-47
2023/10/03 03:08:22;;;;;;;5.10;2.58;;;;;;;12.86;75.79;99818.91;4993209;28;20073;-45
2023/10/03 03:10:55;;;;;;;5.00;2.38;;;;;;;12.82;76.64;99815.53;4992120;28;20046;-48
2023/10/03 03:13:26;;;;;;;5.63;2.42;;;;;;;12.82;76.44;99815.53;4992282;28;20147;-49
2023/10/03 03:15:59;;;;;;;5.18;2.10;;;;;;;12.80;76.27;99822.47;4993773;28;20534;-49
2023/10/03 03:18:31;;;;;;;7.22;3.00;;;;;;;12.80;76.48;99822.47;4996442;28;20064;-45
2023/10/03 03:20:58;;;;;;;6.50;2.75;;;;;;;12.79;75.63;99823.38;4995539;28;20046;-48
2023/10/03 03:23:30;;;;;;;7.82;3.42;;;;;;;12.77;76.94;99832.91;4995335;28;20064;-48
2023/10/03 03:28:49;;;;;;;8.60;3.08;;;;;;;12.73;75.96;99826.91;4993847;28;20054;-49
2023/10/03 03:31:21;;;;;;;8.73;3.75;;;;;;;12.73;76.23;99826.03;4993577;28;20565;-45
2023/10/03 03:33:51;;;;;;;8.07;2.85;;;;;;;12.71;75.59;99833.84;4994199;28;20089;-45
2023/10/03 03:36:21;;;;;;;7.53;3.13;;;;;;;12.72;76.35;99834.72;4991150;28;20049;-48
2023/10/03 03:38:51;;;;;;;9.02;3.60;;;;;;;12.72;76.15;99830.41;4992085;28;20049;-47
2023/10/03 03:41:18;;;;;;;;;;;;;;;12.59;77.33;99823.66;4998110;28;20054;-48
2023/10/03 03:43:48;;;;;;;9.85;3.33;;;;;;;12.70;77.29;99841.72;4995413;28;19928;-47
2023/10/03 03:46:15;;;;;;;8.73;3.88;;;;;;;12.71;76.25;99823.47;4997141;28;20053;-46
2023/10/03 03:48:42;;;;;;;9.90;3.70;;;;;;;12.73;75.85;99837.31;4996925;28;20061;-48
2023/10/03 03:51:11;;;;;;;11.07;3.70;;;;;;;12.73;75.83;99842.50;4996263;28;20048;-49
2023/10/03 03:53:39;;;;;;;10.27;4.00;;;;;;;12.76;76.42;99846.78;4995572;28;20053;-51
2023/10/03 03:56:07;;;;;;;10.95;4.32;;;;;;;12.77;76.88;99845.06;4995952;28;20571;-46
2023/10/03 03:58:37;;;;;;;8.20;3.20;;;;;;;12.77;75.97;99845.91;4997000;28;20053;-49
2023/10/03 04:01:14;;;;;;;8.98;4.55;;;;;;;12.77;76.69;99840.69;4992464;28;20042;-46
2023/10/03 04:03:43;;;;;;;12.70;4.53;;;;;;;12.79;76.22;99848.47;4996738;28;20075;-51
2023/10/03 04:06:10;;;;;;;9.77;4.40;;;;;;;12.79;76.69;99841.56;4990897;28;20060;-46
2023/10/03 04:08:38;;;;;;;10.18;4.20;;;;;;;12.80;76.39;99848.47;4994352;28;20045;-48
2023/10/03 04:11:21;;;;;;;10.35;4.40;;;;;;;12.80;76.18;99864.06;4996777;28;20410;-50
2023/10/03 04:13:55;;;;;;;10.82;5.40;;;;;;;12.79;76.48;99861.47;4994183;28;20053;-48
2023/10/03 04:16:22;;;;;;;10.70;5.28;;;;;;;12.79;76.28;99862.34;4994828;28;20073;-46
2023/10/03 04:18:50;;;;;;;12.27;4.85;;;;;;;12.79;76.31;99867.53;4995964;28;20234;-46
2023/10/03 04:21:19;;;;;;;11.57;4.40;;;;;;;12.80;75.54;99874.44;4994656;28;20235;-47
2023/10/03 04:23:48;;;;;;;15.43;5.88;;;;;;;12.78;76.26;99873.63;4994679;28;20519;-44
2023/10/03 04:26:15;;;;;;;17.23;5.15;;;;;;;12.78;76.54;99881.44;4992186;28;20058;-46
2023/10/03 04:28:41;;;;;;;15.45;5.13;;;;;;;12.79;76.38;99888.34;4992650;28;20054;-46
2023/10/03 04:31:09;;;;;;;14.85;4.68;;;;;;;12.79;76.47;99893.53;4992926;28;20045;-44
2023/10/03 04:33:36;;;;;;;16.58;5.20;;;;;;;12.78;76.18;99898.75;4992240;28;20080;-48
2023/10/03 04:36:04;;;;;;;15.80;6.00;;;;;;;12.78;75.71;99904.81;4991570;28;20080;-45
2023/10/03 04:38:32;;;;;;;14.52;4.93;;;;;;;12.78;76.20;99899.63;4992695;28;21726;-45
2023/10/03 04:40:59;;;;;;;13.90;5.22;;;;;;;12.78;77.33;99899.63;4994895;28;20069;-48
2023/10/03 04:43:29;;;;;;;14.70;4.70;;;;;;;12.78;77.21;99906.53;4985927;28;20056;-45
2023/10/03 04:45:56;;;;;;;;;;;;;;;12.65;76.61;99918.84;4986793;28;20530;-46
2023/10/03 04:48:24;;;;;;;11.23;4.75;;;;;;;12.72;76.47;99912.69;4983307;28;19949;-49
2023/10/03 04:50:51;;;;;;;14.13;5.47;;;;;;;12.74;75.85;99916.13;4986602;28;20173;-48
2023/10/03 04:53:18;;;;;;;16.95;5.82;;;;;;;12.73;76.36;99917.00;4984466;28;20053;-45
2023/10/03 04:55:48;;;;;;;18.17;5.72;;;;;;;12.73;76.29;99910.06;4982376;28;20455;-46
2023/10/03 04:58:15;;;;;;;12.85;5.38;;;;;;;12.73;76.36;99924.78;4988432;28;20064;-46
2023/10/03 05:00:42;;;;;;;14.90;5.18;;;;;;;12.74;77.05;99926.53;4983644;28;20053;-46
2023/10/03 05:03:09;;;;;;;14.65;5.20;;;;;;;12.75;76.65;99925.66;4984689;28;20116;-46
2023/10/03 05:05:37;;;;;;;13.82;5.45;;;;;;;12.75;76.24;99930.84;4984833;28;20089;-45
2023/10/03 05:08:04;;;;;;;16.05;5.65;;;;;;;12.78;77.37;99932.53;4989923;28;20079;-46
2023/10/03 05:10:30;;;;;;;13.35;5.53;;;;;;;12.79;76.48;99929.91;4988248;28;20054;-45
2023/10/03 05:12:57;;;;;;;16.80;5.10;;;;;;;12.78;76.24;99927.34;4992063;28;20053;-47
2023/10/03 05:15:27;;;;;;;14.82;5.47;;;;;;;12.78;77.30;99927.34;4987017;28;20056;-46
2023/10/03 05:17:54;;;;;;;15.73;5.45;;;;;;;12.77;76.30;99931.66;4993253;28;20054;-48
2023/10/03 05:20:21;;;;;;;15.98;5.40;;;;;;;12.77;75.93;99934.25;4990211;28;20046;-46
2023/10/03 05:22:48;;;;;;;16.80;4.82;;;;;;;12.76;77.37;99929.94;4989104;28;21129;-47
2023/10/03 05:25:18;;;;;;;13.48;5.10;;;;;;;12.75;77.25;99933.44;4990709;28;20054;-45
2023/10/03 05:27:48;;;;;;;15.82;4.80;;;;;;;12.75;76.38;99936.03;4994278;28;20050;-46
2023/10/03 05:30:15;;;;;;;12.20;5.13;;;;;;;12.74;77.11;99936.94;4984997;28;20042;-50
2023/10/03 05:32:43;;;;;;;13.43;4.65;;;;;;;12.76;77.21;99947.31;4985175;28;20419;-48
2023/10/03 05:35:12;;;;;;;16.60;4.88;;;;;;;12.75;76.51;99953.34;4984002;28;20470;-48
2023/10/03 05:37:40;;;;;;;16.98;4.60;;;;;;;12.75;76.17;99954.22;4987107;28;20092;-52
2023/10/03 05:40:11;;;;;;;15.05;5.05;;;;;;;12.76;77.05;99947.31;4987086;28;20065;-47
2023/10/03 05:42:40;;;;;;;14.45;5.03;;;;;;;12.77;77.30;99954.22;4986487;28;20427;-45
2023/10/03 05:45:10;;;;;;;15.40;5.90;;;;;;;12.77;76.98;99949.00;4983911;28;20069;-45
2023/10/03 05:47:37;;;;;;;12.77;4.45;;;;;;;12.76;76.16;99947.31;4985435;28;20057;-47
2023/10/03 05:50:04;;;;;;;13.70;4.55;;;;;;;12.77;76.42;99957.66;4983760;28;20046;-51
2023/10/03 05:52:31;;;;;;;15.55;4.95;;;;;;;12.75;76.52;99959.44;4986068;28;20065;-47
2023/10/03 05:54:59;;;;;;;12.52;4.78;;;;;;;12.76;76.22;99958.53;4986075;28;20535;-46
2023/10/03 05:57:25;;;;;;;11.02;4.28;;;;;;;12.75;76.82;99959.44;4989443;28;20053;-49
2023/10/03 05:59:52;;;;;;;14.35;4.18;;;;;;;12.76;77.43;99960.31;4990423;28;20053;-50
2023/10/03 06:02:19;;;;;;;12.00;3.83;;;;;;;12.75;76.79;99964.63;4988880;28;20053;-50
2023/10/03 06:04:46;;;;;;;10.30;3.85;;;;;;;12.76;76.08;99966.34;4988603;28;20057;-48
2023/10/03 06:07:13;;;;;;;11.77;4.43;;;;;;;12.77;76.40;99973.25;4991443;28;20061;-45
2023/10/03 06:09:39;;;;;;;12.45;3.95;;;;;;;12.77;77.20;99975.84;4988878;28;20049;-49
2023/10/03 06:12:06;;;;;;;12.23;4.15;;;;;;;12.77;76.68;99978.44;4993759;28;20049;-45
2023/10/03 06:14:33;;;;;;;11.95;4.18;;;;;;;12.77;76.96;99978.44;4985881;28;20054;-49
2023/10/03 06:17:00;;;;;;;9.75;4.15;;;;;;;12.77;75.81;99980.19;4987719;28;20171;-48
2023/10/03 06:19:26;;;;;;;15.70;5.20;;;;;;;12.75;76.66;99989.75;4994928;28;20067;-46
2023/10/03 06:21:53;;;;;;;13.45;4.70;;;;;;;12.73;76.91;99988.03;4992501;28;20344;-47
2023/10/03 06:24:20;;;;;;;11.38;4.25;;;;;;;12.74;76.55;99996.69;4996644;28;20478;-48
2023/10/03 06:26:47;;;;;;;12.23;4.35;;;;;;;12.71;76.87;99991.53;4992906;28;20045;-48
2023/10/03 06:29:15;;;;;;;14.30;4.78;;;;;;;12.70;76.24;99992.41;4993090;28;20045;-45
2023/10/03 06:31:43;;;;;;;14.10;5.07;;;;;;;12.67;77.05;99995.06;4992576;28;20061;-47
2023/10/03 06:34:11;;;;;;;9.48;3.92;;;;;;;12.65;76.41;100004.59;4999045;28;20122;-45
2023/10/03 06:36:38;;;;;;;10.75;4.53;;;;;;;12.65;76.41;100004.59;4985668;28;20050;-46
2023/10/03 06:39:05;;;;;;;11.52;4.35;;;;;;;12.62;76.36;100004.63;4989014;28;20376;-47
2023/10/03 06:41:31;;;;;;;12.45;4.18;;;;;;;12.60;76.26;100004.66;4988978;28;20054;-45
2023/10/03 06:43:58;;;;;;;11.25;4.13;;;;;;;12.58;75.94;100015.06;4994428;28;20060;-46
2023/10/03 06:46:25;;;;;;;10.00;3.72;;;;;;;12.55;76.94;100015.09;4988678;28;21133;-46
2023/10/03 06:48:54;;;;;;;12.25;4.03;;;;;;;12.50;77.04;100011.69;4986742;28;20500;-49
2023/10/03 06:51:20;;;;;;;8.15;3.50;;;;;;;12.48;77.31;100016.03;4988115;28;20050;-47
2023/10/03 06:53:48;;;;;;;11.85;3.72;;;;;;;12.46;76.25;100020.38;4987701;28;20069;-49
2023/10/03 06:56:15;;;;;;;10.98;3.67;;;;;;;12.47;76.69;100040.31;4990663;28;20948;-48
2023/10/03 06:58:42;;;;;;;8.82;3.63;;;;;;;12.46;76.49;100046.34;4994726;28;20112;-48
2023/10/03 07:01:11;;;;;;;8.60;3.38;;;;;;;12.50;77.56;100042.84;4988790;28;20049;-48
2023/10/03 07:03:40;;;;;;;8.70;3.08;;;;;;;12.54;77.18;100041.97;4995045;28;20046;-46
2023/10/03 07:06:07;;;;;;;7.05;3.20;;;;;;;12.58;76.46;100048.84;4990034;28;20491;-49
2023/10/03 07:08:35;;;;;;;9.13;3.03;;;;;;;12.62;76.14;100057.47;4991445;28;20050;-48
2023/10/03 07:11:02;;;;;;;8.68;3.03;;;;;;;12.64;76.52;100065.25;4993885;28;20067;-47
2023/10/03 07:13:29;;;;;;;10.18;2.92;;;;;;;12.65;76.99;100064.34;4994260;28;20056;-45
2023/10/03 07:15:58;;;;;;;5.35;3.03;;;;;;;12.65;76.80;100056.56;4995517;28;20414;-47
2023/10/03 07:18:24;;;;;;;5.82;2.95;;;;;;;12.63;75.97;100066.13;4995269;28;20119;-51
2023/10/03 07:20:51;;;;;;;6.10;2.33;;;;;;;12.64;76.61;100065.25;4993645;28;20045;-47
2023/10/03 07:23:19;;;;;;;6.68;2.30;;;;;;;12.63;76.07;100066.97;4993179;28;20533;-46
2023/10/03 07:25:46;;;;;;;5.60;2.25;;;;;;;12.68;76.99;100066.91;4986803;28;20058;-49
2023/10/03 07:28:14;;;;;;;5.28;2.47;;;;;;;12.74;76.72;100069.47;4994063;28;20085;-45
2023/10/03 07:30:42;;;;;;;7.13;3.05;;;;;;;12.81;77.23;100068.53;4992827;28;20060;-48
2023/10/03 07:33:08;;;;;;;4.90;1.92;;;;;;;12.91;77.11;100074.47;4994405;28;20056;-47
2023/10/03 07:35:37;;;;;;;6.00;2.58;;;;;;;13.02;76.47;100071.72;4993169;28;20049;-49
2023/10/03 07:38:04;;;;;;;6.55;2.75;;;;;;;13.17;76.87;100085.41;4989675;28;20558;-52
2023/10/03 07:40:31;;;;;;;6.30;2.20;;;;;;;13.40;76.56;100097.25;4995372;28;20060;-49
2023/10/03 07:42:59;;;;;;;6.25;2.28;;;;;;;13.81;76.79;100098.41;4992564;28;20052;-50
2023/10/03 07:45:25;;;;;;;4.82;1.92;;;;;;;14.55;75.64;100100.66;4997887;28;20053;-48
2023/10/03 07:47:52;;;;;;;5.35;1.83;;;;;;;15.29;73.91;100113.16;4996013;28;20057;-49
2023/10/03 07:50:19;;;;;;;3.97;1.67;;;;;;;15.72;72.68;100107.88;4996396;28;20057;-50
2023/10/03 07:52:48;;;;;;;4.93;2.15;;;;;;;16.15;72.17;100119.94;4996983;28;20124;-51
2023/10/03 07:55:19;;;;;;;4.63;2.55;;;;;;;16.45;70.92;100116.59;4997147;28;20441;-47
2023/10/03 07:57:46;;;;;;;5.22;2.17;;;;;;;16.50;70.13;100124.31;4996282;28;20199;-46
2023/10/03 08:00:17;;;;;;;3.60;1.52;;;;;;;16.57;70.38;100125.84;4994967;28;20049;-49
2023/10/03 08:02:44;;;;;;;3.72;1.83;;;;;;;16.87;69.76;100128.56;4999233;28;20057;-46
2023/10/03 08:05:11;;;;;;;5.35;1.75;;;;;;;17.55;69.88;100130.13;4996277;28;20517;-45
2023/10/03 08:07:38;;;;;;;4.75;1.67;;;;;;;18.27;67.83;100141.00;4994246;28;20045;-47
2023/10/03 08:10:06;;;;;;;4.07;1.52;;;;;;;18.91;66.66;100144.06;4994198;28;20045;-47
2023/10/03 08:12:38;;;;;;;3.08;1.20;;;;;;;19.27;65.53;100141.91;4997748;28;20494;-45
2023/10/03 08:15:16;;;;;;;2.45;1.05;;;;;;;19.23;65.01;100145.56;4995620;28;20631;-49
2023/10/03 08:17:48;;;;;;;3.67;1.33;;;;;;;19.48;64.89;100160.38;4997191;28;20132;-44
2023/10/03 08:20:16;;;;;;;3.55;1.50;;;;;;;19.97;64.16;100150.63;4995626;28;20050;-46
2023/10/03 08:22:50;;;;;;;5.03;1.38;;;;;;;20.48;62.89;100161.69;4995629;28;20049;-46
2023/10/03 08:25:19;;;;;;;7.00;1.50;;;;;;;21.00;61.58;100168.25;4995954;28;20049;-47
2023/10/03 08:27:47;;;;;;;5.50;1.30;;;;;;;21.46;60.39;100164.47;4998796;28;20045;-48
2023/10/03 08:30:27;;;;;;;5.32;1.38;;;;;;;21.80;59.79;100168.19;4997781;28;20107;-46
2023/10/03 08:32:56;;;;;;;5.00;1.23;;;;;;;22.14;58.40;100164.81;4996757;28;20406;-48
2023/10/03 08:35:34;;;;;;;3.83;1.27;;;;;;;22.46;57.88;100165.00;4997075;28;20056;-49
2023/10/03 08:38:05;;;;;;;5.40;1.52;;;;;;;22.77;56.47;100174.00;4997076;28;20041;-46
2023/10/03 08:40:38;;;;;;;3.13;1.45;;;;;;;23.09;56.25;100184.66;4995281;28;20053;-49
2023/10/03 08:43:08;;;;;;;4.80;1.55;;;;;;;23.44;55.79;100178.41;5007842;28;20057;-49
2023/10/03 08:45:40;;;;;;;2.50;1.27;;;;;;;23.88;55.18;100192.72;4996615;28;20159;-47
2023/10/03 08:48:08;;;;;;;6.82;1.98;;;;;;;24.33;54.35;100202.59;4994024;28;20056;-48
2023/10/03 08:53:16;;;;;;;7.25;1.20;;;;;;;24.79;52.97;100208.75;5032279;28;20396;-49
2023/10/03 08:58:19;;;;;;;4.05;1.63;;;;;;;25.29;51.49;100205.75;5061795;27;20388;-48
2023/10/03 09:00:49;;;;;;;2.42;1.85;;;;;;;25.27;51.38;100203.19;5031737;28;20052;-50
2023/10/03 09:03:18;;;;;;;3.28;1.30;;;;;;;25.52;51.10;100204.31;5039681;28;20628;-48
2023/10/03 09:05:46;;;;;;;3.65;1.50;;;;;;;25.67;49.96;100214.94;5030884;28;20127;-46
2023/10/03 09:08:15;;;;;;;2.70;1.10;;;;;;;25.76;49.65;100218.78;5027553;28;20474;-48
2023/10/03 09:10:51;;;;;;;5.13;1.23;;;;;;;25.90;49.60;100226.72;5011770;28;20073;-46
2023/10/03 09:13:23;;;;;;;4.25;1.50;;;;;;;26.09;49.09;100237.91;5014639;28;20049;-50
2023/10/03 09:15:59;;;;;;;7.68;1.50;;;;;;;26.28;47.85;100229.66;5009727;28;20049;-46
2023/10/03 09:18:29;;;;;;;4.82;1.75;;;;;;;26.50;47.87;100238.81;5006765;28;20045;-48
2023/10/03 09:20:59;;;;;;;3.00;1.02;;;;;;;26.62;48.10;100240.66;5011275;28;20045;-49
2023/10/03 09:23:37;;;;;;;4.10;1.05;;;;;;;26.71;47.62;100236.50;5012904;28;20057;-50
2023/10/03 09:26:06;;;;;;;2.58;1.67;;;;;;;26.86;46.64;100239.94;5008662;28;22299;-45
2023/10/03 09:28:36;;;;;;;3.50;1.25;;;;;;;27.03;46.22;100251.25;5013927;28;20052;-47
2023/10/03 09:31:08;;;;;;;2.50;1.23;;;;;;;27.09;46.85;100234.88;5012228;28;20414;-49
2023/10/03 09:33:39;;;;;;;3.05;1.00;;;;;;;27.06;44.89;100245.72;5012772;28;20132;-49
2023/10/03 09:36:06;;;;;;;1.75;0.88;;;;;;;27.10;45.94;100252.53;5008188;28;20251;-50
2023/10/03 09:38:42;;;;;;;3.28;1.42;;;;;;;27.20;45.27;100255.38;5014363;28;20052;-50
2023/10/03 09:41:17;;;;;;;2.30;1.00;;;;;;;27.25;45.66;100255.91;5020815;28;20056;-48
2023/10/03 09:43:47;;;;;;;4.55;1.27;;;;;;;27.13;45.11;100262.94;5011050;28;20058;-48
2023/10/03 09:46:25;;;;;;;3.65;0.80;;;;;;;27.31;45.67;100271.44;5008032;28;20077;-45
2023/10/03 09:48:54;;;;;;;3.78;1.00;;;;;;;27.39;44.52;100273.53;5010575;28;20069;-50
2023/10/03 09:51:36;;;;;;;5.07;1.10;;;;;;;27.39;45.43;100273.53;5005975;28;20103;-47
2023/10/03 09:54:08;;;;;;;2.80;1.20;;;;;;;27.18;44.30;100276.75;5014191;28;20131;-50
2023/10/03 09:56:40;;;;;;;3.70;1.45;;;;;;;26.85;44.05;100288.69;5006440;28;20588;-49
2023/10/03 09:59:08;;;;;;;2.55;1.10;;;;;;;26.69;45.35;100287.09;5007132;28;20045;-51
2023/10/03 10:01:39;;;;;;;3.60;0.90;;;;;;;26.71;46.03;100291.47;5010049;28;20054;-49
2023/10/03 10:04:08;;;;;;;4.70;1.45;;;;;;;26.62;45.70;100303.56;5009549;28;20053;-45
2023/10/03 10:06:47;;;;;;;3.40;1.25;;;;;;;26.53;45.29;100312.97;5009362;28;20140;-48
2023/10/03 10:09:35;;;;;;;;;;;;;;;26.49;43.90;100316.78;5000871;28;20415;-47
2023/10/03 10:17:55;;;;;;;4.10;1.40;;;;;;;25.83;45.98;100315.59;5020739;28;20390;-47
2023/10/03 10:20:32;;;;;;;3.20;0.82;;;;;;;25.54;45.47;100320.91;4992942;28;20057;-49
2023/10/03 10:25:56;;;;;;;3.17;1.42;;;;;;;25.26;46.42;100320.78;5038088;28;20412;-47
2023/10/03 10:28:26;;;;;;;3.28;0.77;;;;;;;25.23;45.63;100322.78;5008055;28;20052;-49
2023/10/03 10:31:16;;;;;;;2.67;1.17;;;;;;;25.01;45.09;100316.09;5007758;28;20622;-48
2023/10/03 10:33:44;;;;;;;4.68;0.77;;;;;;;24.72;46.74;100316.84;5009644;28;20057;-47
2023/10/03 10:36:12;;;;;;;5.35;1.80;;;;;;;24.49;47.02;100318.19;5011129;28;20045;-48
2023/10/03 10:44:13;;;;;;;2.08;0.80;;;;;;;23.41;48.03;100337.16;5032615;28;20410;-49
2023/10/03 10:46:44;;;;;;;4.65;1.35;;;;;;;23.02;48.31;100331.16;4989943;28;20049;-50
2023/10/03 10:52:09;;;;;;;3.85;1.83;;;;;;;22.83;49.85;100342.66;5043862;27;20399;-47
2023/10/03 10:54:39;;;;;;;5.57;2.65;;;;;;;23.09;50.18;100343.13;4968794;28;20068;-52
2023/10/03 10:57:07;;;;;;;3.67;2.90;;;;;;;23.04;49.11;100357.50;4971381;28;20054;-47
2023/10/03 10:59:43;;;;;;;3.90;2.00;;;;;;;22.86;49.03;100370.69;4970989;28;20098;-47
2023/10/03 11:02:20;;;;;;;4.72;2.88;;;;;;;22.96;49.77;100366.66;4970967;28;20057;-49
2023/10/03 11:04:56;;;;;;;5.18;2.13;;;;;;;22.89;49.18;100361.78;4971560;28;20097;-48
2023/10/03 11:07:24;;;;;;;3.35;1.05;;;;;;;22.73;49.24;100368.66;4973067;28;20624;-49
2023/10/03 11:09:54;;;;;;;5.75;1.98;;;;;;;22.72;50.04;100371.38;4968824;28;20517;-51
2023/10/03 11:14:59;;;;;;;3.65;1.08;;;;;;;22.77;48.78;100377.31;5011925;28;20409;-46
2023/10/03 11:17:26;;;;;;;2.45;1.48;;;;;;;22.78;49.36;100376.34;5005853;28;20147;-48
2023/10/03 11:19:55;;;;;;;4.40;0.88;;;;;;;22.79;48.52;100378.06;4999502;28;20049;-47
2023/10/03 11:22:22;;;;;;;1.92;1.00;;;;;;;22.74;48.61;100374.81;5004507;28;20046;-47
2023/10/03 11:24:49;;;;;;;2.92;1.10;;;;;;;22.63;47.74;100382.38;5007679;28;20050;-44
2023/10/03 11:27:26;;;;;;;8.68;0.75;;;;;;;22.54;48.71;100384.50;5002994;28;20080;-48
2023/10/03 11:29:53;;;;;;;3.00;0.98;;;;;;;22.62;48.79;100383.31;5003218;28;20971;-47
2023/10/03 11:35:21;;;;;;;1.52;0.50;;;;;;;22.59;46.73;100369.31;5041365;27;20408;-49
2023/10/03 11:37:51;;;;;;;2.28;0.65;;;;;;;22.34;47.54;100382.81;5032507;28;20045;-50
2023/10/03 11:40:20;;;;;;;1.95;0.68;;;;;;;21.98;47.80;100381.78;5032077;28;20049;-50
2023/10/03 11:45:28;;;;;;;2.47;2.28;;;;;;;21.39;48.13;100385.19;5070132;27;20414;-47
2023/10/03 11:50:36;;;;;;;4.13;0.73;;;;;;;20.98;49.34;100375.50;5069284;27;20399;-48
2023/10/03 11:53:04;;;;;;;3.22;0.70;;;;;;;20.97;49.02;100373.75;5062886;28;20052;-46
2023/10/03 11:55:33;;;;;;;4.65;1.10;;;;;;;21.04;49.85;100385.75;5063272;28;20548;-47
2023/10/03 11:58:00;;;;;;;1.67;0.60;;;;;;;21.10;49.07;100386.44;5063557;28;20044;-49
2023/10/03 12:00:28;;;;;;;2.75;0.82;;;;;;;21.14;49.75;100374.84;5064104;28;20050;-46
2023/10/03 12:02:55;;;;;;;1.58;0.40;;;;;;;21.03;48.83;100389.31;5062461;28;20059;-45
2023/10/03 12:05:23;;;;;;;2.33;1.00;;;;;;;20.80;49.06;100391.06;5062060;28;20059;-46
2023/10/03 12:07:51;;;;;;;3.20;1.20;;;;;;;20.60;48.93;100391.84;5061331;28;20052;-49
2023/10/03 12:10:19;;;;;;;2.50;0.40;;;;;;;20.40;49.47;100390.84;5046856;28;20056;-44
2023/10/03 12:12:46;;;;;;;3.38;0.85;;;;;;;20.34;49.71;100380.59;5054989;28;21402;-47
2023/10/03 12:15:14;;;;;;;2.40;0.80;;;;;;;20.32;50.38;100378.91;5054120;28;20045;-49
2023/10/03 12:17:41;;;;;;;4.65;0.80;;;;;;;20.40;49.84;100368.97;5053811;28;20048;-47
2023/10/03 12:20:13;;;;;;;2.10;0.95;;;;;;;20.61;50.05;100366.41;5055635;28;20129;-47